Time;durP1;ratioP1;P1;durP2;ratioP2;P2;SDS_P1;SDS_P2;PMS_P1;PMS_P2;Temp;Humidity;BMP_temperature;BMP_pressure;BME280_temperature;BME280_humidity;BME280_pressure;Samples;Min_cycle;Max_cycle;Signal;HPM_P1;HPM_P2
2022/07/09 00:01:18;;;;;;;4.63;2.95;;;;;;;;;;4984710;28;20507;-70
2022/07/09 00:03:43;;;;;;;3.35;2.17;;;;;;;;;;4983810;28;20558;-72
2022/07/09 00:06:09;;;;;;;7.22;2.40;;;;;;;;;;4985864;28;20042;-71
2022/07/09 00:08:34;;;;;;;4.10;2.40;;;;;;;;;;4985260;28;20049;-71
2022/07/09 00:11:00;;;;;;;2.92;2.30;;;;;;;;;;4983222;28;20066;-70
2022/07/09 00:13:25;;;;;;;6.43;2.53;;;;;;;;;;4985025;28;20148;-70
2022/07/09 00:15:52;;;;;;;4.45;2.50;;;;;;;;;;4985017;28;20109;-71
2022/07/09 00:18:18;;;;;;;5.00;3.38;;;;;;;;;;4984959;28;20077;-71
2022/07/09 00:20:45;;;;;;;4.93;2.60;;;;;;;;;;4985030;28;20082;-71
2022/07/09 00:23:10;;;;;;;3.10;2.78;;;;;;;;;;4984080;28;20182;-71
2022/07/09 00:25:35;;;;;;;3.70;2.90;;;;;;;;;;4985187;28;20514;-72
2022/07/09 00:28:01;;;;;;;7.82;3.72;;;;;;;;;;4984981;28;20067;-71
2022/07/09 00:30:27;;;;;;;5.57;3.08;;;;;;;;;;4984885;28;20030;-71
2022/07/09 00:32:52;;;;;;;7.72;2.55;;;;;;;;;;4984022;28;20033;-71
2022/07/09 00:35:18;;;;;;;5.45;3.08;;;;;;;;;;4984479;28;20034;-71
2022/07/09 00:37:44;;;;;;;5.95;2.95;;;;;;;;;;4984692;28;20076;-71
2022/07/09 00:40:11;;;;;;;5.68;3.15;;;;;;;;;;4982838;28;20041;-71
2022/07/09 00:42:36;;;;;;;3.55;3.20;;;;;;;;;;4983321;28;20034;-71
2022/07/09 00:45:02;;;;;;;4.57;3.05;;;;;;;;;;4983790;28;20148;-71
2022/07/09 00:47:27;;;;;;;6.10;3.17;;;;;;;;;;4983297;28;20133;-71
2022/07/09 00:49:54;;;;;;;5.38;3.00;;;;;;;;;;4984477;28;20038;-71
2022/07/09 00:52:20;;;;;;;7.13;2.90;;;;;;;;;;4984602;28;20952;-71
2022/07/09 00:54:46;;;;;;;5.78;2.85;;;;;;;;;;4983829;28;20046;-71
2022/07/09 00:57:12;;;;;;;6.50;3.40;;;;;;;;;;4984331;28;20145;-71
2022/07/09 00:59:39;;;;;;;5.32;3.00;;;;;;;;;;4984417;28;20037;-71
2022/07/09 01:02:07;;;;;;;8.02;3.42;;;;;;;;;;4984145;28;20034;-71
2022/07/09 01:04:32;;;;;;;6.85;3.30;;;;;;;;;;4984297;28;20026;-70
2022/07/09 01:06:58;;;;;;;5.15;2.78;;;;;;;;;;4982826;28;20049;-70
2022/07/09 01:09:24;;;;;;;4.78;3.55;;;;;;;;;;4984006;28;20038;-70
2022/07/09 01:11:50;;;;;;;5.82;2.88;;;;;;;;;;4984282;28;20034;-70
2022/07/09 01:14:16;;;;;;;10.63;2.80;;;;;;;;;;4984090;28;20117;-70
2022/07/09 01:16:41;;;;;;;5.07;2.80;;;;;;;;;;4983055;28;20038;-70
2022/07/09 01:19:08;;;;;;;6.85;2.47;;;;;;;;;;4983978;28;20031;-70
2022/07/09 01:21:34;;;;;;;7.13;2.90;;;;;;;;;;4984028;28;20038;-70
2022/07/09 01:24:00;;;;;;;5.32;3.17;;;;;;;;;;4984071;28;20553;-70
2022/07/09 01:26:25;;;;;;;6.82;3.10;;;;;;;;;;4982513;28;20053;-70
2022/07/09 01:28:51;;;;;;;5.80;2.75;;;;;;;;;;4982804;28;20141;-70
2022/07/09 01:31:17;;;;;;;2.97;2.40;;;;;;;;;;4983778;28;20696;-70
2022/07/09 01:33:43;;;;;;;7.25;2.70;;;;;;;;;;4983968;28;20045;-70
2022/07/09 01:36:08;;;;;;;6.78;2.70;;;;;;;;;;4983741;28;20118;-70
2022/07/09 01:38:34;;;;;;;4.63;2.70;;;;;;;;;;4982820;28;20038;-70
2022/07/09 01:41:00;;;;;;;9.40;2.50;;;;;;;;;;4980911;28;20034;-70
2022/07/09 01:43:25;;;;;;;3.78;2.72;;;;;;;;;;4981661;28;20633;-70
2022/07/09 01:45:51;;;;;;;5.93;2.28;;;;;;;;;;4982295;28;20376;-70
2022/07/09 01:48:17;;;;;;;4.65;2.60;;;;;;;;;;4983445;28;20034;-70
2022/07/09 01:50:42;;;;;;;6.07;2.50;;;;;;;;;;4982745;28;20097;-70
2022/07/09 01:53:08;;;;;;;6.72;2.33;;;;;;;;;;4983175;28;20097;-70
2022/07/09 01:55:33;;;;;;;4.10;2.47;;;;;;;;;;4983548;28;20399;-70
2022/07/09 01:57:59;;;;;;;3.70;2.15;;;;;;;;;;4983066;28;20062;-70
2022/07/09 02:00:27;;;;;;;5.93;2.70;;;;;;;;;;4982893;28;20061;-70
2022/07/09 02:02:53;;;;;;;6.72;2.70;;;;;;;;;;4983065;28;20077;-70
2022/07/09 02:05:19;;;;;;;4.53;2.83;;;;;;;;;;4983382;28;20034;-70
2022/07/09 02:07:44;;;;;;;6.35;2.67;;;;;;;;;;4983212;28;20905;-70
2022/07/09 02:10:10;;;;;;;3.63;2.50;;;;;;;;;;4982950;28;20101;-70
2022/07/09 02:12:35;;;;;;;7.82;3.33;;;;;;;;;;4982359;28;20030;-71
2022/07/09 02:15:01;;;;;;;3.67;2.40;;;;;;;;;;4982579;28;20065;-71
2022/07/09 02:17:26;;;;;;;6.75;3.67;;;;;;;;;;4983369;28;20026;-71
2022/07/09 02:19:52;;;;;;;3.83;2.40;;;;;;;;;;4981542;28;20038;-71
2022/07/09 02:22:17;;;;;;;5.07;2.35;;;;;;;;;;4982321;28;20550;-71
2022/07/09 02:24:43;;;;;;;3.70;2.40;;;;;;;;;;4982476;28;20049;-71
2022/07/09 02:27:08;;;;;;;5.40;2.42;;;;;;;;;;4982926;28;20065;-71
2022/07/09 02:29:34;;;;;;;7.80;2.50;;;;;;;;;;4982561;28;20495;-71
2022/07/09 02:32:00;;;;;;;4.15;2.30;;;;;;;;;;4983419;28;20951;-71
2022/07/09 02:34:25;;;;;;;5.72;2.63;;;;;;;;;;4982166;28;20074;-71
2022/07/09 02:36:51;;;;;;;2.80;2.30;;;;;;;;;;4982472;28;20048;-71
2022/07/09 02:39:17;;;;;;;3.67;2.20;;;;;;;;;;4982660;28;20141;-71
2022/07/09 02:41:43;;;;;;;3.67;2.72;;;;;;;;;;4982230;28;20031;-71
2022/07/09 02:44:08;;;;;;;3.85;2.80;;;;;;;;;;4981827;28;20394;-71
2022/07/09 02:46:33;;;;;;;2.88;2.20;;;;;;;;;;4981991;28;20018;-71
2022/07/09 02:48:59;;;;;;;8.90;3.00;;;;;;;;;;4980776;28;20030;-70
2022/07/09 02:51:24;;;;;;;3.38;2.40;;;;;;;;;;4982461;28;20034;-70
2022/07/09 02:53:50;;;;;;;6.75;2.53;;;;;;;;;;4982562;28;20044;-70
2022/07/09 02:56:15;;;;;;;6.05;2.47;;;;;;;;;;4981378;28;20030;-70
2022/07/09 02:58:40;;;;;;;2.80;2.60;;;;;;;;;;4982177;28;20088;-70
2022/07/09 03:01:06;;;;;;;3.15;2.78;;;;;;;;;;4981792;28;20088;-70
2022/07/09 03:03:35;;;;;;;5.18;2.60;;;;;;;;;;4982263;28;20034;-70
2022/07/09 03:06:01;;;;;;;2.78;2.50;;;;;;;;;;4982145;28;20479;-70
2022/07/09 03:08:27;;;;;;;6.80;2.65;;;;;;;;;;4984022;28;20486;-71
2022/07/09 03:10:52;;;;;;;2.97;2.22;;;;;;;;;;4982044;28;20491;-70
2022/07/09 03:13:18;;;;;;;9.40;2.33;;;;;;;;;;4981892;28;20113;-70
2022/07/09 03:15:43;;;;;;;4.97;2.47;;;;;;;;;;4981973;28;20038;-71
2022/07/09 03:18:08;;;;;;;10.02;2.47;;;;;;;;;;4980918;28;20041;-70
2022/07/09 03:20:37;;;;;;;3.97;2.40;;;;;;;;;;4981652;28;20044;-71
2022/07/09 03:23:03;;;;;;;9.77;3.45;;;;;;;;;;4981781;28;20125;-71
2022/07/09 03:25:29;;;;;;;3.33;2.28;;;;;;;;;;4981784;28;20027;-71
2022/07/09 03:27:56;;;;;;;5.47;2.35;;;;;;;;;;4980464;28;20026;-71
2022/07/09 03:30:23;;;;;;;3.30;2.60;;;;;;;;;;4979075;28;20049;-71
2022/07/09 03:32:49;;;;;;;6.32;2.78;;;;;;;;;;4981681;28;20843;-71
2022/07/09 03:35:14;;;;;;;4.70;2.60;;;;;;;;;;4986033;28;20065;-71
2022/07/09 03:37:40;;;;;;;5.88;2.67;;;;;;;;;;4981673;28;20062;-71
2022/07/09 03:40:06;;;;;;;4.57;2.20;;;;;;;;;;4982385;28;20128;-71
2022/07/09 03:42:32;;;;;;;3.95;2.05;;;;;;;;;;4978850;28;20593;-70
2022/07/09 03:44:57;;;;;;;8.77;2.47;;;;;;;;;;4980913;28;20053;-70
2022/07/09 03:47:23;;;;;;;6.90;2.10;;;;;;;;;;4979765;28;20038;-70
2022/07/09 03:49:48;;;;;;;2.65;1.83;;;;;;;;;;4981441;28;21099;-70
2022/07/09 03:52:14;;;;;;;3.10;2.40;;;;;;;;;;4977933;28;20046;-70
2022/07/09 03:54:39;;;;;;;4.28;2.00;;;;;;;;;;4979927;28;20030;-70
2022/07/09 03:57:05;;;;;;;6.55;2.17;;;;;;;;;;4981574;28;20065;-70
2022/07/09 03:59:30;;;;;;;3.47;2.22;;;;;;;;;;4980574;28;20479;-70
2022/07/09 04:01:56;;;;;;;6.90;2.30;;;;;;;;;;4980779;28;20027;-70
2022/07/09 04:04:21;;;;;;;4.05;2.08;;;;;;;;;;4981337;28;20038;-70
2022/07/09 04:06:47;;;;;;;2.70;2.00;;;;;;;;;;4981596;28;20022;-70
2022/07/09 04:09:12;;;;;;;3.65;2.17;;;;;;;;;;4981191;28;20033;-70
2022/07/09 04:11:37;;;;;;;5.22;2.40;;;;;;;;;;4981741;28;20462;-70
2022/07/09 04:14:03;;;;;;;2.05;1.83;;;;;;;;;;4980059;28;20044;-70
2022/07/09 04:16:28;;;;;;;3.85;1.90;;;;;;;;;;4981374;28;20038;-70
2022/07/09 04:18:54;;;;;;;6.85;1.95;;;;;;;;;;4981221;28;20078;-70
2022/07/09 04:21:22;;;;;;;4.95;2.28;;;;;;;;;;4981249;28;20442;-70
2022/07/09 04:23:49;;;;;;;4.82;2.08;;;;;;;;;;4980385;28;20586;-70
2022/07/09 04:26:15;;;;;;;3.65;2.30;;;;;;;;;;4981240;28;20791;-70
2022/07/09 04:28:40;;;;;;;4.15;2.10;;;;;;;;;;4979924;28;20092;-70
2022/07/09 04:31:05;;;;;;;7.15;1.80;;;;;;;;;;4981376;28;20053;-70
2022/07/09 04:33:31;;;;;;;4.35;2.55;;;;;;;;;;4981470;28;20582;-70
2022/07/09 04:35:56;;;;;;;3.97;2.42;;;;;;;;;;4979959;28;20696;-70
2022/07/09 04:38:22;;;;;;;4.78;2.42;;;;;;;;;;4981283;28;20080;-70
2022/07/09 04:40:47;;;;;;;4.53;2.03;;;;;;;;;;4981180;28;20070;-70
2022/07/09 04:43:13;;;;;;;2.38;2.17;;;;;;;;;;4983544;28;20066;-70
2022/07/09 04:45:38;;;;;;;6.10;2.10;;;;;;;;;;4983876;28;20518;-70
2022/07/09 04:48:04;;;;;;;3.33;2.20;;;;;;;;;;4984360;28;20506;-70
2022/07/09 04:50:29;;;;;;;3.00;1.90;;;;;;;;;;4984495;28;20479;-70
2022/07/09 04:52:55;;;;;;;4.20;2.05;;;;;;;;;;4984553;28;20041;-70
2022/07/09 04:55:21;;;;;;;4.47;2.40;;;;;;;;;;4984488;28;20044;-70
2022/07/09 04:57:47;;;;;;;3.58;1.85;;;;;;;;;;4983748;28;20034;-70
2022/07/09 05:00:15;;;;;;;2.95;1.80;;;;;;;;;;4984509;28;20042;-70
2022/07/09 05:02:41;;;;;;;5.60;2.33;;;;;;;;;;4984468;28;20551;-71
2022/07/09 05:05:07;;;;;;;3.50;1.95;;;;;;;;;;4984181;28;20045;-70
2022/07/09 05:07:33;;;;;;;4.43;2.28;;;;;;;;;;4983635;28;20072;-70
2022/07/09 05:10:02;;;;;;;8.85;2.15;;;;;;;;;;4983991;28;20057;-71
2022/07/09 05:12:28;;;;;;;4.63;2.40;;;;;;;;;;4982879;28;20149;-71
2022/07/09 05:14:55;;;;;;;2.53;2.03;;;;;;;;;;4983990;28;20227;-71
2022/07/09 05:17:20;;;;;;;9.60;2.35;;;;;;;;;;4984202;28;20253;-70
2022/07/09 05:19:46;;;;;;;5.82;2.10;;;;;;;;;;4983065;28;20475;-70
2022/07/09 05:22:11;;;;;;;3.90;2.10;;;;;;;;;;4983575;28;20054;-71
2022/07/09 05:24:37;;;;;;;3.88;2.17;;;;;;;;;;4983431;28;21044;-71
2022/07/09 05:27:03;;;;;;;3.00;1.80;;;;;;;;;;4983216;28;20030;-70
2022/07/09 05:29:29;;;;;;;5.68;2.00;;;;;;;;;;4981596;28;20165;-70
2022/07/09 05:31:54;;;;;;;5.45;1.98;;;;;;;;;;4978566;28;20049;-70
2022/07/09 05:34:20;;;;;;;6.60;2.08;;;;;;;;;;4980519;28;20077;-71
2022/07/09 05:36:45;;;;;;;8.85;2.13;;;;;;;;;;4980515;28;20046;-70
2022/07/09 05:39:11;;;;;;;4.93;1.95;;;;;;;;;;4979200;28;20054;-71
2022/07/09 05:41:36;;;;;;;6.72;1.92;;;;;;;;;;4978761;28;20225;-70
2022/07/09 05:44:03;;;;;;;3.08;1.70;;;;;;;;;;4979403;28;20114;-70
2022/07/09 05:46:29;;;;;;;4.45;1.38;;;;;;;;;;4980712;28;20029;-70
2022/07/09 05:48:55;;;;;;;3.80;1.63;;;;;;;;;;4979880;28;20490;-71
2022/07/09 05:51:21;;;;;;;2.45;1.75;;;;;;;;;;4979666;28;20467;-71
2022/07/09 05:53:46;;;;;;;4.35;1.83;;;;;;;;;;4981800;28;20093;-70
2022/07/09 05:56:12;;;;;;;3.97;1.83;;;;;;;;;;4981194;28;20050;-71
2022/07/09 05:58:38;;;;;;;4.07;1.58;;;;;;;;;;4982200;28;20100;-71
2022/07/09 06:01:04;;;;;;;3.65;1.92;;;;;;;;;;4981432;28;20153;-71
2022/07/09 06:03:30;;;;;;;4.28;1.95;;;;;;;;;;4981251;28;20042;-71
2022/07/09 06:05:56;;;;;;;2.22;1.67;;;;;;;;;;4981146;28;20061;-71
2022/07/09 06:08:21;;;;;;;2.88;1.85;;;;;;;;;;4981380;28;20450;-71
2022/07/09 06:10:46;;;;;;;5.75;1.80;;;;;;;;;;4981549;28;20109;-71
2022/07/09 06:13:12;;;;;;;3.60;1.80;;;;;;;;;;4980682;28;20038;-70
2022/07/09 06:15:37;;;;;;;5.38;2.00;;;;;;;;;;4981574;28;20054;-71
2022/07/09 06:18:03;;;;;;;3.55;1.90;;;;;;;;;;4979844;28;20050;-71
2022/07/09 06:20:28;;;;;;;3.80;2.00;;;;;;;;;;4981865;28;20034;-71
2022/07/09 06:22:54;;;;;;;3.50;1.85;;;;;;;;;;4978960;28;20031;-71
2022/07/09 06:25:19;;;;;;;3.47;1.83;;;;;;;;;;4980998;28;20041;-71
2022/07/09 06:27:45;;;;;;;5.45;1.95;;;;;;;;;;4980751;28;20045;-71
2022/07/09 06:30:11;;;;;;;4.70;1.83;;;;;;;;;;4980525;28;20038;-71
2022/07/09 06:32:36;;;;;;;4.95;2.30;;;;;;;;;;4980952;28;20057;-71
2022/07/09 06:35:02;;;;;;;5.78;2.10;;;;;;;;;;4980475;28;20410;-71
2022/07/09 06:37:28;;;;;;;3.22;1.83;;;;;;;;;;4979720;28;20026;-71
2022/07/09 06:39:55;;;;;;;4.28;1.92;;;;;;;;;;4980380;28;20441;-71
2022/07/09 06:42:20;;;;;;;3.38;1.55;;;;;;;;;;4981357;28;20045;-71
2022/07/09 06:44:56;;;;;;;4.60;1.70;;;;;;;;;;4980683;28;20034;-71
2022/07/09 06:47:21;;;;;;;8.02;1.90;;;;;;;;;;4980972;28;20042;-71
2022/07/09 06:49:46;;;;;;;5.07;1.55;;;;;;;;;;4980082;28;20080;-71
2022/07/09 06:52:12;;;;;;;2.88;1.40;;;;;;;;;;4981254;28;20487;-71
2022/07/09 06:54:38;;;;;;;3.70;1.63;;;;;;;;;;4981422;28;20030;-71
2022/07/09 06:57:04;;;;;;;4.05;1.45;;;;;;;;;;4981194;28;20023;-71
2022/07/09 06:59:29;;;;;;;4.82;1.60;;;;;;;;;;4980947;28;20514;-71
2022/07/09 07:01:55;;;;;;;5.80;1.40;;;;;;;;;;4982177;28;20138;-71
2022/07/09 07:04:21;;;;;;;2.63;1.73;;;;;;;;;;4981730;28;20037;-70
2022/07/09 07:06:48;;;;;;;3.88;1.40;;;;;;;;;;4981728;28;20041;-70
2022/07/09 07:09:18;;;;;;;2.33;1.35;;;;;;;;;;4981078;28;20057;-70
2022/07/09 07:11:47;;;;;;;7.28;1.40;;;;;;;;;;4981531;28;20050;-69
2022/07/09 07:14:12;;;;;;;4.72;1.05;;;;;;;;;;4981182;28;20044;-70
2022/07/09 07:16:38;;;;;;;4.57;1.30;;;;;;;;;;4982424;28;20034;-71
2022/07/09 07:19:03;;;;;;;5.80;1.40;;;;;;;;;;4981500;28;20040;-69
2022/07/09 07:21:29;;;;;;;5.55;1.30;;;;;;;;;;4981585;28;20089;-69
2022/07/09 07:23:54;;;;;;;3.25;0.90;;;;;;;;;;4981798;28;20969;-69
2022/07/09 07:26:19;;;;;;;4.20;1.25;;;;;;;;;;4981964;28;20040;-69
2022/07/09 07:28:45;;;;;;;5.68;1.40;;;;;;;;;;4981586;28;20941;-69
2022/07/09 07:31:10;;;;;;;3.30;1.33;;;;;;;;;;4981195;28;20061;-69
2022/07/09 07:33:36;;;;;;;2.47;1.10;;;;;;;;;;4981568;28;20034;-69
2022/07/09 07:36:01;;;;;;;2.42;0.95;;;;;;;;;;4981818;28;20030;-70
2022/07/09 07:38:27;;;;;;;4.15;1.45;;;;;;;;;;4981402;28;20030;-69
2022/07/09 07:40:53;;;;;;;2.28;1.15;;;;;;;;;;4980355;28;20031;-69
2022/07/09 07:43:19;;;;;;;7.35;1.10;;;;;;;;;;4980884;28;20026;-69
2022/07/09 07:45:44;;;;;;;5.68;1.33;;;;;;;;;;4981816;28;20258;-70
2022/07/09 07:48:10;;;;;;;4.15;1.40;;;;;;;;;;4981695;28;20096;-70
2022/07/09 07:50:38;;;;;;;5.00;1.63;;;;;;;;;;4981845;28;20062;-70
2022/07/09 07:53:05;;;;;;;4.93;1.30;;;;;;;;;;4980870;28;20034;-70
2022/07/09 07:55:30;;;;;;;9.20;1.35;;;;;;;;;;4980786;28;20514;-70
2022/07/09 07:57:56;;;;;;;4.88;1.25;;;;;;;;;;4981071;28;20042;-70
2022/07/09 08:00:22;;;;;;;6.88;1.30;;;;;;;;;;4981152;28;20526;-70
2022/07/09 08:02:47;;;;;;;2.38;1.30;;;;;;;;;;4981216;28;20079;-70
2022/07/09 08:05:13;;;;;;;2.95;1.30;;;;;;;;;;4980435;28;20045;-70
2022/07/09 08:07:38;;;;;;;3.95;1.20;;;;;;;;;;4980956;28;20044;-70
2022/07/09 08:10:04;;;;;;;1.92;1.27;;;;;;;;;;4981061;28;20034;-71
2022/07/09 08:12:30;;;;;;;2.35;1.30;;;;;;;;;;4981041;28;20110;-70
2022/07/09 08:14:55;;;;;;;3.28;1.30;;;;;;;;;;4979060;28;20038;-71
2022/07/09 08:17:20;;;;;;;5.88;1.35;;;;;;;;;;4983523;28;20034;-71
2022/07/09 08:19:46;;;;;;;2.53;1.25;;;;;;;;;;4985097;28;20049;-71
2022/07/09 08:22:11;;;;;;;6.18;1.30;;;;;;;;;;4984226;28;20042;-71
2022/07/09 08:24:37;;;;;;;2.65;1.20;;;;;;;;;;4984994;28;20041;-71
2022/07/09 08:27:02;;;;;;;3.35;1.30;;;;;;;;;;4981661;28;20117;-72
2022/07/09 08:29:28;;;;;;;3.20;1.20;;;;;;;;;;4984959;28;20014;-72
2022/07/09 08:31:53;;;;;;;6.63;1.33;;;;;;;;;;4984668;28;20073;-72
2022/07/09 08:34:19;;;;;;;2.83;1.30;;;;;;;;;;4984933;28;20399;-72
2022/07/09 08:36:44;;;;;;;5.00;1.10;;;;;;;;;;4983962;28;20084;-72
2022/07/09 08:39:10;;;;;;;8.43;1.45;;;;;;;;;;4984665;28;20435;-72
2022/07/09 08:41:36;;;;;;;3.55;1.30;;;;;;;;;;4984734;28;20084;-72
2022/07/09 08:44:04;;;;;;;2.53;1.38;;;;;;;;;;4984758;28;20042;-72
2022/07/09 08:46:31;;;;;;;6.13;1.52;;;;;;;;;;4985021;28;20037;-72
2022/07/09 08:48:58;;;;;;;5.85;1.42;;;;;;;;;;4983370;28;20084;-72
2022/07/09 08:51:23;;;;;;;4.88;1.35;;;;;;;;;;4983212;28;20037;-72
2022/07/09 08:53:49;;;;;;;4.78;1.08;;;;;;;;;;4984191;28;20454;-73
2022/07/09 08:56:15;;;;;;;5.82;1.15;;;;;;;;;;4982715;28;20436;-73
2022/07/09 08:58:41;;;;;;;3.85;1.40;;;;;;;;;;4981621;28;20074;-73
2022/07/09 09:01:07;;;;;;;3.35;1.13;;;;;;;;;;4982500;28;20042;-74
2022/07/09 09:03:33;;;;;;;2.30;1.27;;;;;;;;;;4966880;28;20538;-74
2022/07/09 09:06:09;;;;;;;6.60;1.70;;;;;;;;;;4982265;28;20030;-72
2022/07/09 09:08:39;;;;;;;3.60;1.58;;;;;;;;;;4978974;28;20034;-72
2022/07/09 09:11:06;;;;;;;4.22;1.48;;;;;;;;;;4981711;28;20034;-73
2022/07/09 09:13:45;;;;;;;2.63;1.08;;;;;;;;;;4984203;28;20038;-72
2022/07/09 09:16:12;;;;;;;2.72;1.02;;;;;;;;;;4984470;28;20470;-72
2022/07/09 09:18:48;;;;;;;4.00;1.30;;;;;;;;;;4983908;28;20411;-72
2022/07/09 09:21:16;;;;;;;4.22;1.38;;;;;;;;;;4983151;28;20034;-73
2022/07/09 09:23:49;;;;;;;4.30;1.17;;;;;;;;;;4982849;28;20099;-73
2022/07/09 09:26:35;;;;;;;4.75;1.40;;;;;;;;;;4983883;28;20030;-73
2022/07/09 09:29:03;;;;;;;2.55;1.20;;;;;;;;;;4983212;28;20071;-73
2022/07/09 09:31:35;;;;;;;4.25;1.20;;;;;;;;;;4965784;28;20570;-74
2022/07/09 09:34:06;;;;;;;3.08;1.27;;;;;;;;;;4982284;28;20041;-72
2022/07/09 09:36:37;;;;;;;3.15;1.23;;;;;;;;;;4983833;28;20749;-72
2022/07/09 09:39:11;;;;;;;1.53;0.83;;;;;;;;;;4983612;28;20042;-74
2022/07/09 09:41:36;;;;;;;4.10;1.02;;;;;;;;;;4982172;28;20034;-72
2022/07/09 09:44:09;;;;;;;3.53;1.40;;;;;;;;;;4982455;28;20045;-72
2022/07/09 09:46:37;;;;;;;2.67;1.08;;;;;;;;;;4982678;28;20906;-72
2022/07/09 09:49:06;;;;;;;4.78;1.30;;;;;;;;;;4982560;28;20452;-72
2022/07/09 09:51:34;;;;;;;2.20;0.95;;;;;;;;;;4983162;28;21128;-72
2022/07/09 09:54:01;;;;;;;5.75;1.13;;;;;;;;;;4981208;28;20073;-72
2022/07/09 09:56:28;;;;;;;8.48;1.38;;;;;;;;;;4982756;28;20105;-72
2022/07/09 09:58:55;;;;;;;2.90;0.95;;;;;;;;;;4981926;28;20038;-72
2022/07/09 10:01:20;;;;;;;1.95;0.85;;;;;;;;;;4983298;28;20030;-71
2022/07/09 10:03:46;;;;;;;4.07;1.10;;;;;;;;;;4983167;28;20046;-71
2022/07/09 10:06:12;;;;;;;4.00;1.17;;;;;;;;;;4981251;28;20034;-72
2022/07/09 10:08:37;;;;;;;4.05;1.00;;;;;;;;;;4982413;28;20030;-70
2022/07/09 10:11:04;;;;;;;2.72;1.30;;;;;;;;;;4982573;28;20064;-72
2022/07/09 10:13:29;;;;;;;1.77;1.05;;;;;;;;;;4981545;28;20403;-71
2022/07/09 10:15:55;;;;;;;5.38;1.10;;;;;;;;;;4981123;28;20049;-71
2022/07/09 10:18:20;;;;;;;5.28;0.90;;;;;;;;;;4982806;28;20030;-71
2022/07/09 10:20:46;;;;;;;2.78;0.93;;;;;;;;;;4982629;28;20026;-71
2022/07/09 10:23:22;;;;;;;1.90;1.00;;;;;;;;;;4982500;28;20030;-71
2022/07/09 10:25:52;;;;;;;6.88;1.00;;;;;;;;;;4982279;28;20116;-71
2022/07/09 10:28:19;;;;;;;5.95;1.08;;;;;;;;;;4981431;28;20129;-71
2022/07/09 10:30:45;;;;;;;2.50;1.00;;;;;;;;;;4982508;28;20038;-71
2022/07/09 10:33:11;;;;;;;4.40;1.10;;;;;;;;;;4981072;28;20030;-71
2022/07/09 10:35:44;;;;;;;3.00;1.13;;;;;;;;;;4982312;28;20372;-71
2022/07/09 10:38:10;;;;;;;1.33;0.80;;;;;;;;;;4980190;28;20061;-71
2022/07/09 10:40:43;;;;;;;3.00;0.77;;;;;;;;;;4981334;28;20034;-71
2022/07/09 10:43:10;;;;;;;3.00;0.88;;;;;;;;;;4980875;28;20134;-71
2022/07/09 10:45:43;;;;;;;1.25;0.85;;;;;;;;;;4980642;28;20469;-71
2022/07/09 10:48:11;;;;;;;1.58;0.90;;;;;;;;;;4981271;28;20487;-71
2022/07/09 10:50:44;;;;;;;1.80;0.77;;;;;;;;;;4980233;28;20085;-72
2022/07/09 10:53:11;;;;;;;2.20;1.02;;;;;;;;;;4981320;28;20030;-71
2022/07/09 10:55:37;;;;;;;1.45;0.88;;;;;;;;;;4981529;28;20038;-73
2022/07/09 10:58:07;;;;;;;5.10;0.95;;;;;;;;;;4982108;28;20053;-70
2022/07/09 11:00:34;;;;;;;6.22;0.93;;;;;;;;;;4981431;28;20070;-70
2022/07/09 11:03:05;;;;;;;2.33;1.00;;;;;;;;;;4981594;28;20042;-70
2022/07/09 11:05:43;;;;;;;2.70;0.70;;;;;;;;;;4981630;28;20499;-70
2022/07/09 11:08:09;;;;;;;2.38;1.10;;;;;;;;;;4981825;28;20030;-71
2022/07/09 11:10:37;;;;;;;4.93;1.00;;;;;;;;;;4981390;28;20177;-71
2022/07/09 11:13:06;;;;;;;1.50;0.90;;;;;;;;;;4981759;28;20034;-70
2022/07/09 11:15:33;;;;;;;1.90;0.82;;;;;;;;;;4981905;28;20069;-69
2022/07/09 11:18:04;;;;;;;2.15;0.95;;;;;;;;;;4980032;28;20038;-70
2022/07/09 11:20:32;;;;;;;3.22;0.88;;;;;;;;;;4981236;28;20436;-70
2022/07/09 11:23:00;;;;;;;2.28;1.00;;;;;;;;;;4979123;28;20096;-70
2022/07/09 11:25:27;;;;;;;3.03;0.93;;;;;;;;;;4981623;28;20491;-70
2022/07/09 11:27:56;;;;;;;2.88;0.88;;;;;;;;;;4980655;28;20042;-69
2022/07/09 11:30:23;;;;;;;4.43;1.08;;;;;;;;;;4981274;28;20034;-70
2022/07/09 11:32:49;;;;;;;2.15;1.00;;;;;;;;;;4980244;28;20026;-70
2022/07/09 11:35:28;;;;;;;2.88;0.98;;;;;;;;;;4981068;28;20069;-70
2022/07/09 11:37:55;;;;;;;3.63;1.00;;;;;;;;;;4980875;28;20034;-70
2022/07/09 11:40:21;;;;;;;2.90;1.10;;;;;;;;;;4980458;28;20026;-70
2022/07/09 11:42:47;;;;;;;2.88;0.95;;;;;;;;;;4980445;28;20056;-70
2022/07/09 11:45:12;;;;;;;3.97;1.02;;;;;;;;;;4979773;28;20094;-70
2022/07/09 11:47:39;;;;;;;2.25;1.05;;;;;;;;;;4981280;28;20097;-70
2022/07/09 11:50:10;;;;;;;3.25;0.88;;;;;;;;;;4980871;28;20046;-70
2022/07/09 11:52:43;;;;;;;3.15;1.20;;;;;;;;;;4984831;28;20542;-70
2022/07/09 11:55:09;;;;;;;3.28;0.90;;;;;;;;;;4983280;28;20048;-70
2022/07/09 11:57:36;;;;;;;4.25;1.00;;;;;;;;;;4983600;28;20121;-70
2022/07/09 12:00:07;;;;;;;1.33;0.93;;;;;;;;;;4983327;28;20041;-70
2022/07/09 12:02:37;;;;;;;2.80;0.88;;;;;;;;;;4983607;28;20074;-70
2022/07/09 12:05:05;;;;;;;6.45;1.45;;;;;;;;;;4983262;28;20038;-70
2022/07/09 12:07:31;;;;;;;2.22;0.98;;;;;;;;;;4982703;28;20422;-70
2022/07/09 12:09:59;;;;;;;3.70;1.00;;;;;;;;;;4984142;28;20512;-70
2022/07/09 12:12:26;;;;;;;4.68;1.35;;;;;;;;;;4985093;28;20026;-70
2022/07/09 12:14:51;;;;;;;4.25;1.10;;;;;;;;;;4984918;28;20034;-70
2022/07/09 12:17:23;;;;;;;2.85;1.13;;;;;;;;;;4984444;28;20702;-70
2022/07/09 12:19:48;;;;;;;3.67;1.10;;;;;;;;;;4984418;28;20072;-70
2022/07/09 12:22:14;;;;;;;2.55;1.00;;;;;;;;;;4984834;28;20035;-70
2022/07/09 12:24:39;;;;;;;4.63;1.23;;;;;;;;;;4985223;28;20928;-74
2022/07/09 12:27:05;;;;;;;2.05;0.93;;;;;;;;;;4984213;28;20821;-73
2022/07/09 12:29:30;;;;;;;2.83;1.05;;;;;;;;;;4984165;28;20037;-74
2022/07/09 12:31:56;;;;;;;5.28;1.23;;;;;;;;;;4984768;28;20411;-74
2022/07/09 12:34:21;;;;;;;2.22;0.90;;;;;;;;;;4984904;28;20069;-74
2022/07/09 12:36:46;;;;;;;6.30;1.20;;;;;;;;;;4984553;28;20488;-74
2022/07/09 12:39:12;;;;;;;1.90;1.02;;;;;;;;;;4982278;28;20065;-73
2022/07/09 12:41:37;;;;;;;4.35;1.25;;;;;;;;;;4983232;28;20041;-74
2022/07/09 12:44:03;;;;;;;2.58;1.02;;;;;;;;;;4997956;28;20415;-73
2022/07/09 12:46:28;;;;;;;3.58;1.17;;;;;;;;;;4983350;28;20093;-74
2022/07/09 12:48:54;;;;;;;1.67;0.90;;;;;;;;;;4984042;28;20249;-75
2022/07/09 12:51:19;;;;;;;3.30;1.10;;;;;;;;;;4986333;28;20034;-74
2022/07/09 12:53:44;;;;;;;2.85;0.95;;;;;;;;;;4987291;28;20034;-73
2022/07/09 12:56:13;;;;;;;6.38;1.13;;;;;;;;;;4981737;28;20057;-73
2022/07/09 12:58:40;;;;;;;3.78;1.40;;;;;;;;;;4984073;28;20064;-72
2022/07/09 13:01:05;;;;;;;4.68;1.00;;;;;;;;;;4984088;28;20042;-72
2022/07/09 13:03:31;;;;;;;5.25;1.08;;;;;;;;;;4983869;28;20046;-73
2022/07/09 13:05:56;;;;;;;2.90;1.15;;;;;;;;;;4985117;28;20038;-73
2022/07/09 13:08:23;;;;;;;2.30;1.00;;;;;;;;;;4967866;28;20076;-72
2022/07/09 13:10:48;;;;;;;2.90;1.10;;;;;;;;;;4984031;28;20145;-72
2022/07/09 13:13:14;;;;;;;1.42;0.80;;;;;;;;;;4983937;28;20483;-72
2022/07/09 13:15:40;;;;;;;4.03;1.08;;;;;;;;;;4983488;28;20411;-70
2022/07/09 13:18:05;;;;;;;2.60;1.05;;;;;;;;;;4984047;28;20032;-72
2022/07/09 13:20:31;;;;;;;1.65;1.20;;;;;;;;;;4984077;28;20057;-73
2022/07/09 13:22:56;;;;;;;2.38;1.00;;;;;;;;;;4983392;28;20034;-72
2022/07/09 13:25:22;;;;;;;3.13;1.05;;;;;;;;;;4982533;28;20061;-74
2022/07/09 13:27:47;;;;;;;3.20;1.00;;;;;;;;;;4983338;28;20044;-72
2022/07/09 13:30:13;;;;;;;1.85;0.98;;;;;;;;;;4983826;28;20096;-74
2022/07/09 13:32:38;;;;;;;3.67;1.15;;;;;;;;;;4984095;28;20978;-71
2022/07/09 13:35:04;;;;;;;3.20;1.02;;;;;;;;;;4983845;28;20447;-72
2022/07/09 13:37:31;;;;;;;7.90;1.05;;;;;;;;;;4982876;28;20125;-70
2022/07/09 13:39:56;;;;;;;2.13;1.05;;;;;;;;;;4983052;28;20112;-70
2022/07/09 13:42:22;;;;;;;3.15;1.00;;;;;;;;;;4983670;28;20132;-70
2022/07/09 13:44:47;;;;;;;1.55;0.80;;;;;;;;;;4965789;28;20045;-71
2022/07/09 13:47:14;;;;;;;5.47;0.98;;;;;;;;;;4982844;28;20042;-70
2022/07/09 13:49:39;;;;;;;1.27;0.93;;;;;;;;;;4983047;28;20034;-70
2022/07/09 13:52:05;;;;;;;2.53;1.08;;;;;;;;;;4983388;28;20030;-70
2022/07/09 13:54:30;;;;;;;2.05;0.90;;;;;;;;;;4982941;28;20041;-71
2022/07/09 13:56:57;;;;;;;3.22;1.30;;;;;;;;;;4983439;28;20076;-69
2022/07/09 13:59:23;;;;;;;3.33;1.17;;;;;;;;;;4982359;28;20328;-70
2022/07/09 14:01:48;;;;;;;5.53;1.00;;;;;;;;;;4983206;28;20157;-71
2022/07/09 14:04:14;;;;;;;2.22;1.10;;;;;;;;;;4983410;28;20034;-70
2022/07/09 14:06:39;;;;;;;3.25;1.00;;;;;;;;;;4982636;28;20054;-70
2022/07/09 14:09:05;;;;;;;2.95;1.08;;;;;;;;;;4982140;28;20046;-70
2022/07/09 14:11:30;;;;;;;6.10;1.10;;;;;;;;;;4982402;28;20030;-70
2022/07/09 14:13:57;;;;;;;3.33;1.10;;;;;;;;;;4982669;28;20038;-70
2022/07/09 14:16:22;;;;;;;2.33;0.82;;;;;;;;;;4983012;28;20109;-70
2022/07/09 14:18:48;;;;;;;2.28;1.65;;;;;;;;;;4982723;28;20192;-70
2022/07/09 14:21:13;;;;;;;5.57;3.00;;;;;;;;;;4981562;28;20030;-71
2022/07/09 14:23:39;;;;;;;3.80;1.40;;;;;;;;;;4982626;28;20038;-71
2022/07/09 14:26:04;;;;;;;3.92;1.40;;;;;;;;;;4982564;28;20080;-71
2022/07/09 14:28:30;;;;;;;4.22;1.33;;;;;;;;;;4982806;28;20034;-71
2022/07/09 14:30:55;;;;;;;3.72;1.17;;;;;;;;;;4982632;28;20038;-70
2022/07/09 14:33:21;;;;;;;2.03;1.20;;;;;;;;;;4982312;28;20030;-73
2022/07/09 14:35:46;;;;;;;3.00;1.13;;;;;;;;;;4981069;28;20088;-71
2022/07/09 14:38:12;;;;;;;3.22;0.88;;;;;;;;;;4983472;28;20038;-73